sensor_id;sensor_type;location;lat;lon;timestamp;P1;durP1;ratioP1;P2;durP2;ratioP2
1831;SDS011;1680;48.106;11.708;2023-04-29T00:01:33;2.83;;;0.97;;
1831;SDS011;1680;48.106;11.708;2023-04-29T00:04:01;2.10;;;0.87;;
1831;SDS011;1680;48.106;11.708;2023-04-29T00:06:28;0.80;;;0.80;;
1831;SDS011;1680;48.106;11.708;2023-04-29T00:08:55;1.53;;;0.90;;
1831;SDS011;1680;48.106;11.708;2023-04-29T00:11:24;1.10;;;0.80;;
1831;SDS011;1680;48.106;11.708;2023-04-29T00:13:51;1.17;;;0.70;;
1831;SDS011;1680;48.106;11.708;2023-04-29T00:16:18;0.70;;;0.70;;
1831;SDS011;1680;48.106;11.708;2023-04-29T00:18:45;0.67;;;0.67;;
1831;SDS011;1680;48.106;11.708;2023-04-29T00:21:12;0.90;;;0.80;;
1831;SDS011;1680;48.106;11.708;2023-04-29T00:23:40;0.70;;;0.70;;
1831;SDS011;1680;48.106;11.708;2023-04-29T00:26:07;0.80;;;0.80;;
1831;SDS011;1680;48.106;11.708;2023-04-29T00:28:35;0.60;;;0.60;;
1831;SDS011;1680;48.106;11.708;2023-04-29T00:31:03;1.30;;;1.07;;
1831;SDS011;1680;48.106;11.708;2023-04-29T00:33:30;0.77;;;0.77;;
1831;SDS011;1680;48.106;11.708;2023-04-29T00:35:57;1.60;;;0.70;;
1831;SDS011;1680;48.106;11.708;2023-04-29T00:38:24;0.70;;;0.70;;
1831;SDS011;1680;48.106;11.708;2023-04-29T00:40:52;0.70;;;0.70;;
1831;SDS011;1680;48.106;11.708;2023-04-29T00:43:19;0.90;;;0.70;;
1831;SDS011;1680;48.106;11.708;2023-04-29T00:45:48;0.77;;;0.77;;
1831;SDS011;1680;48.106;11.708;2023-04-29T00:48:15;0.80;;;0.80;;
1831;SDS011;1680;48.106;11.708;2023-04-29T00:50:42;0.93;;;0.90;;
1831;SDS011;1680;48.106;11.708;2023-04-29T00:53:10;0.83;;;0.83;;
1831;SDS011;1680;48.106;11.708;2023-04-29T00:55:38;1.33;;;0.70;;
1831;SDS011;1680;48.106;11.708;2023-04-29T00:58:06;0.70;;;0.70;;
1831;SDS011;1680;48.106;11.708;2023-04-29T01:00:34;0.90;;;0.90;;
1831;SDS011;1680;48.106;11.708;2023-04-29T01:03:03;0.73;;;0.73;;
1831;SDS011;1680;48.106;11.708;2023-04-29T01:05:31;0.80;;;0.80;;
1831;SDS011;1680;48.106;11.708;2023-04-29T01:08:02;0.80;;;0.80;;
1831;SDS011;1680;48.106;11.708;2023-04-29T01:10:40;1.13;;;1.00;;
1831;SDS011;1680;48.106;11.708;2023-04-29T01:13:16;0.90;;;0.90;;
1831;SDS011;1680;48.106;11.708;2023-04-29T01:15:48;1.07;;;0.90;;
1831;SDS011;1680;48.106;11.708;2023-04-29T01:18:27;0.90;;;0.90;;
1831;SDS011;1680;48.106;11.708;2023-04-29T01:20:58;1.10;;;1.00;;
1831;SDS011;1680;48.106;11.708;2023-04-29T01:23:27;1.97;;;1.20;;
1831;SDS011;1680;48.106;11.708;2023-04-29T01:25:58;0.80;;;0.80;;
1831;SDS011;1680;48.106;11.708;2023-04-29T01:28:30;1.57;;;1.10;;
1831;SDS011;1680;48.106;11.708;2023-04-29T01:31:07;2.97;;;1.10;;
1831;SDS011;1680;48.106;11.708;2023-04-29T01:33:43;1.03;;;1.00;;
1831;SDS011;1680;48.106;11.708;2023-04-29T01:36:20;1.33;;;1.23;;
1831;SDS011;1680;48.106;11.708;2023-04-29T01:38:59;1.30;;;1.20;;
1831;SDS011;1680;48.106;11.708;2023-04-29T01:41:30;1.27;;;0.90;;
1831;SDS011;1680;48.106;11.708;2023-04-29T01:44:02;1.17;;;0.97;;
1831;SDS011;1680;48.106;11.708;2023-04-29T01:46:30;2.13;;;1.00;;
1831;SDS011;1680;48.106;11.708;2023-04-29T01:48:58;1.00;;;1.00;;
1831;SDS011;1680;48.106;11.708;2023-04-29T01:51:25;1.57;;;1.00;;
1831;SDS011;1680;48.106;11.708;2023-04-29T01:53:52;1.20;;;1.10;;
1831;SDS011;1680;48.106;11.708;2023-04-29T01:56:21;1.53;;;1.37;;
1831;SDS011;1680;48.106;11.708;2023-04-29T01:58:48;1.50;;;1.40;;
1831;SDS011;1680;48.106;11.708;2023-04-29T02:01:15;1.40;;;1.30;;
1831;SDS011;1680;48.106;11.708;2023-04-29T02:03:42;1.67;;;1.43;;
1831;SDS011;1680;48.106;11.708;2023-04-29T02:06:10;1.10;;;1.00;;
1831;SDS011;1680;48.106;11.708;2023-04-29T02:08:37;1.40;;;1.30;;
1831;SDS011;1680;48.106;11.708;2023-04-29T02:11:04;1.40;;;1.30;;
1831;SDS011;1680;48.106;11.708;2023-04-29T02:13:33;1.40;;;1.30;;
1831;SDS011;1680;48.106;11.708;2023-04-29T02:16:06;1.43;;;1.33;;
1831;SDS011;1680;48.106;11.708;2023-04-29T02:18:34;1.40;;;1.30;;
1831;SDS011;1680;48.106;11.708;2023-04-29T02:21:01;1.50;;;1.40;;
1831;SDS011;1680;48.106;11.708;2023-04-29T02:23:28;1.50;;;1.30;;
1831;SDS011;1680;48.106;11.708;2023-04-29T02:25:55;1.47;;;1.37;;
1831;SDS011;1680;48.106;11.708;2023-04-29T02:28:23;1.97;;;1.40;;
1831;SDS011;1680;48.106;11.708;2023-04-29T02:30:51;2.20;;;1.40;;
1831;SDS011;1680;48.106;11.708;2023-04-29T02:33:19;1.60;;;1.50;;
1831;SDS011;1680;48.106;11.708;2023-04-29T02:35:46;1.67;;;1.57;;
1831;SDS011;1680;48.106;11.708;2023-04-29T02:38:13;1.40;;;1.30;;
1831;SDS011;1680;48.106;11.708;2023-04-29T02:40:41;1.70;;;1.60;;
1831;SDS011;1680;48.106;11.708;2023-04-29T02:43:08;1.53;;;1.43;;
1831;SDS011;1680;48.106;11.708;2023-04-29T02:45:36;1.57;;;1.47;;
1831;SDS011;1680;48.106;11.708;2023-04-29T02:48:05;1.60;;;1.50;;
1831;SDS011;1680;48.106;11.708;2023-04-29T02:50:33;1.97;;;1.50;;
1831;SDS011;1680;48.106;11.708;2023-04-29T02:53:00;3.30;;;1.40;;
1831;SDS011;1680;48.106;11.708;2023-04-29T02:55:27;1.83;;;1.67;;
1831;SDS011;1680;48.106;11.708;2023-04-29T02:57:54;1.53;;;1.43;;
1831;SDS011;1680;48.106;11.708;2023-04-29T03:00:21;1.50;;;1.40;;
1831;SDS011;1680;48.106;11.708;2023-04-29T03:02:48;3.93;;;1.53;;
1831;SDS011;1680;48.106;11.708;2023-04-29T03:05:17;2.47;;;1.30;;
1831;SDS011;1680;48.106;11.708;2023-04-29T03:07:44;1.63;;;1.53;;
1831;SDS011;1680;48.106;11.708;2023-04-29T03:10:11;1.43;;;1.33;;
1831;SDS011;1680;48.106;11.708;2023-04-29T03:12:39;1.50;;;1.40;;
1831;SDS011;1680;48.106;11.708;2023-04-29T03:15:06;1.30;;;1.20;;
1831;SDS011;1680;48.106;11.708;2023-04-29T03:17:34;1.70;;;1.60;;
1831;SDS011;1680;48.106;11.708;2023-04-29T03:20:02;1.40;;;1.23;;
1831;SDS011;1680;48.106;11.708;2023-04-29T03:22:31;1.53;;;1.43;;
1831;SDS011;1680;48.106;11.708;2023-04-29T03:24:59;1.40;;;1.30;;
1831;SDS011;1680;48.106;11.708;2023-04-29T03:27:26;1.63;;;1.53;;
1831;SDS011;1680;48.106;11.708;2023-04-29T03:29:54;1.43;;;1.33;;
1831;SDS011;1680;48.106;11.708;2023-04-29T03:32:21;1.40;;;1.30;;
1831;SDS011;1680;48.106;11.708;2023-04-29T03:34:48;1.43;;;1.33;;
1831;SDS011;1680;48.106;11.708;2023-04-29T03:37:15;1.60;;;1.50;;
1831;SDS011;1680;48.106;11.708;2023-04-29T03:39:44;1.90;;;1.40;;
1831;SDS011;1680;48.106;11.708;2023-04-29T03:42:12;1.63;;;1.53;;
1831;SDS011;1680;48.106;11.708;2023-04-29T03:44:39;1.30;;;1.30;;
1831;SDS011;1680;48.106;11.708;2023-04-29T03:47:07;1.63;;;1.53;;
1831;SDS011;1680;48.106;11.708;2023-04-29T03:49:34;1.57;;;1.47;;
1831;SDS011;1680;48.106;11.708;2023-04-29T03:52:01;1.53;;;1.40;;
1831;SDS011;1680;48.106;11.708;2023-04-29T03:54:29;1.60;;;1.50;;
1831;SDS011;1680;48.106;11.708;2023-04-29T03:56:57;1.50;;;1.40;;
1831;SDS011;1680;48.106;11.708;2023-04-29T03:59:26;2.13;;;1.87;;
1831;SDS011;1680;48.106;11.708;2023-04-29T04:01:53;1.47;;;1.40;;
1831;SDS011;1680;48.106;11.708;2023-04-29T04:04:20;1.30;;;1.20;;
1831;SDS011;1680;48.106;11.708;2023-04-29T04:06:47;1.40;;;1.30;;
1831;SDS011;1680;48.106;11.708;2023-04-29T04:09:16;2.00;;;1.60;;
1831;SDS011;1680;48.106;11.708;2023-04-29T04:11:43;1.60;;;1.50;;
1831;SDS011;1680;48.106;11.708;2023-04-29T04:14:12;1.50;;;1.40;;
1831;SDS011;1680;48.106;11.708;2023-04-29T04:16:39;1.63;;;1.43;;
1831;SDS011;1680;48.106;11.708;2023-04-29T04:19:06;1.77;;;1.40;;
1831;SDS011;1680;48.106;11.708;2023-04-29T04:21:34;1.30;;;1.20;;
1831;SDS011;1680;48.106;11.708;2023-04-29T04:24:01;1.83;;;1.40;;
1831;SDS011;1680;48.106;11.708;2023-04-29T04:26:28;1.73;;;1.13;;
1831;SDS011;1680;48.106;11.708;2023-04-29T04:28:55;1.37;;;1.27;;
1831;SDS011;1680;48.106;11.708;2023-04-29T04:31:24;1.43;;;1.33;;
1831;SDS011;1680;48.106;11.708;2023-04-29T04:33:51;1.70;;;1.60;;
1831;SDS011;1680;48.106;11.708;2023-04-29T04:36:18;1.93;;;1.40;;
1831;SDS011;1680;48.106;11.708;2023-04-29T04:38:45;2.80;;;1.80;;
1831;SDS011;1680;48.106;11.708;2023-04-29T04:41:12;1.50;;;1.40;;
1831;SDS011;1680;48.106;11.708;2023-04-29T04:43:40;2.00;;;1.80;;
1831;SDS011;1680;48.106;11.708;2023-04-29T04:46:10;1.70;;;1.40;;
1831;SDS011;1680;48.106;11.708;2023-04-29T04:48:39;1.70;;;1.60;;
1831;SDS011;1680;48.106;11.708;2023-04-29T04:51:07;1.70;;;1.53;;
1831;SDS011;1680;48.106;11.708;2023-04-29T04:53:35;1.30;;;1.20;;
1831;SDS011;1680;48.106;11.708;2023-04-29T04:56:02;1.63;;;1.53;;
1831;SDS011;1680;48.106;11.708;2023-04-29T04:58:30;1.57;;;1.30;;
1831;SDS011;1680;48.106;11.708;2023-04-29T05:00:57;2.40;;;1.40;;
1831;SDS011;1680;48.106;11.708;2023-04-29T05:03:24;2.60;;;1.90;;
1831;SDS011;1680;48.106;11.708;2023-04-29T05:05:53;1.70;;;1.60;;
1831;SDS011;1680;48.106;11.708;2023-04-29T05:08:21;2.33;;;1.80;;
1831;SDS011;1680;48.106;11.708;2023-04-29T05:10:48;2.13;;;1.93;;
1831;SDS011;1680;48.106;11.708;2023-04-29T05:13:15;1.80;;;1.67;;
1831;SDS011;1680;48.106;11.708;2023-04-29T05:15:43;1.70;;;1.60;;
1831;SDS011;1680;48.106;11.708;2023-04-29T05:18:10;1.80;;;1.70;;
1831;SDS011;1680;48.106;11.708;2023-04-29T05:20:38;1.60;;;1.50;;
1831;SDS011;1680;48.106;11.708;2023-04-29T05:23:06;2.20;;;1.50;;
1831;SDS011;1680;48.106;11.708;2023-04-29T05:25:34;1.90;;;1.70;;
1831;SDS011;1680;48.106;11.708;2023-04-29T05:28:01;1.73;;;1.63;;
1831;SDS011;1680;48.106;11.708;2023-04-29T05:30:29;1.80;;;1.70;;
1831;SDS011;1680;48.106;11.708;2023-04-29T05:32:56;1.90;;;1.80;;
1831;SDS011;1680;48.106;11.708;2023-04-29T05:35:24;1.77;;;1.67;;
1831;SDS011;1680;48.106;11.708;2023-04-29T05:37:51;2.10;;;1.90;;
1831;SDS011;1680;48.106;11.708;2023-04-29T05:40:19;1.80;;;1.70;;
1831;SDS011;1680;48.106;11.708;2023-04-29T05:42:47;2.07;;;1.97;;
1831;SDS011;1680;48.106;11.708;2023-04-29T05:45:14;2.07;;;1.87;;
1831;SDS011;1680;48.106;11.708;2023-04-29T05:47:41;1.73;;;1.63;;
1831;SDS011;1680;48.106;11.708;2023-04-29T05:50:09;2.27;;;2.07;;
1831;SDS011;1680;48.106;11.708;2023-04-29T05:52:36;2.13;;;2.03;;
1831;SDS011;1680;48.106;11.708;2023-04-29T05:55:04;2.30;;;1.83;;
1831;SDS011;1680;48.106;11.708;2023-04-29T05:57:33;2.30;;;2.10;;
1831;SDS011;1680;48.106;11.708;2023-04-29T06:00:02;1.83;;;1.73;;
1831;SDS011;1680;48.106;11.708;2023-04-29T06:02:31;2.10;;;1.97;;
1831;SDS011;1680;48.106;11.708;2023-04-29T06:04:58;2.17;;;2.07;;
1831;SDS011;1680;48.106;11.708;2023-04-29T06:07:25;2.43;;;2.23;;
1831;SDS011;1680;48.106;11.708;2023-04-29T06:09:53;2.37;;;2.17;;
1831;SDS011;1680;48.106;11.708;2023-04-29T06:12:21;3.87;;;2.57;;
1831;SDS011;1680;48.106;11.708;2023-04-29T06:14:49;2.23;;;2.10;;
1831;SDS011;1680;48.106;11.708;2023-04-29T06:17:16;2.00;;;1.90;;
1831;SDS011;1680;48.106;11.708;2023-04-29T06:19:44;2.10;;;2.00;;
1831;SDS011;1680;48.106;11.708;2023-04-29T06:22:11;3.23;;;2.17;;
1831;SDS011;1680;48.106;11.708;2023-04-29T06:24:38;3.07;;;2.87;;
1831;SDS011;1680;48.106;11.708;2023-04-29T06:27:08;3.63;;;2.53;;
1831;SDS011;1680;48.106;11.708;2023-04-29T06:29:35;3.03;;;2.40;;
1831;SDS011;1680;48.106;11.708;2023-04-29T06:32:04;2.40;;;2.20;;
1831;SDS011;1680;48.106;11.708;2023-04-29T06:34:31;3.00;;;2.70;;
1831;SDS011;1680;48.106;11.708;2023-04-29T06:36:58;2.87;;;2.60;;
1831;SDS011;1680;48.106;11.708;2023-04-29T06:39:25;2.80;;;2.60;;
1831;SDS011;1680;48.106;11.708;2023-04-29T06:41:53;3.17;;;2.97;;
1831;SDS011;1680;48.106;11.708;2023-04-29T06:44:22;3.03;;;2.83;;
1831;SDS011;1680;48.106;11.708;2023-04-29T06:46:50;5.00;;;2.70;;
1831;SDS011;1680;48.106;11.708;2023-04-29T06:49:18;3.00;;;2.80;;
1831;SDS011;1680;48.106;11.708;2023-04-29T06:51:46;3.33;;;2.90;;
1831;SDS011;1680;48.106;11.708;2023-04-29T06:54:13;3.40;;;3.03;;
1831;SDS011;1680;48.106;11.708;2023-04-29T06:56:40;3.13;;;2.93;;
1831;SDS011;1680;48.106;11.708;2023-04-29T06:59:07;3.23;;;3.03;;
1831;SDS011;1680;48.106;11.708;2023-04-29T07:01:36;3.80;;;3.40;;
1831;SDS011;1680;48.106;11.708;2023-04-29T07:04:04;3.83;;;3.53;;
1831;SDS011;1680;48.106;11.708;2023-04-29T07:06:32;3.70;;;3.40;;
1831;SDS011;1680;48.106;11.708;2023-04-29T07:09:00;3.57;;;3.27;;
1831;SDS011;1680;48.106;11.708;2023-04-29T07:11:28;4.13;;;3.43;;
1831;SDS011;1680;48.106;11.708;2023-04-29T07:13:55;4.70;;;3.30;;
1831;SDS011;1680;48.106;11.708;2023-04-29T07:16:22;4.00;;;3.60;;
1831;SDS011;1680;48.106;11.708;2023-04-29T07:18:50;3.90;;;3.53;;
1831;SDS011;1680;48.106;11.708;2023-04-29T07:21:18;4.30;;;4.00;;
1831;SDS011;1680;48.106;11.708;2023-04-29T07:23:46;3.70;;;3.40;;
1831;SDS011;1680;48.106;11.708;2023-04-29T07:26:14;4.10;;;3.70;;
1831;SDS011;1680;48.106;11.708;2023-04-29T07:28:42;3.87;;;3.43;;
1831;SDS011;1680;48.106;11.708;2023-04-29T07:31:10;5.83;;;3.50;;
1831;SDS011;1680;48.106;11.708;2023-04-29T07:33:38;3.43;;;3.23;;
1831;SDS011;1680;48.106;11.708;2023-04-29T07:36:05;3.60;;;3.30;;
1831;SDS011;1680;48.106;11.708;2023-04-29T07:38:33;4.00;;;3.30;;
1831;SDS011;1680;48.106;11.708;2023-04-29T07:41:02;3.80;;;3.50;;
1831;SDS011;1680;48.106;11.708;2023-04-29T07:43:29;4.00;;;3.67;;
1831;SDS011;1680;48.106;11.708;2023-04-29T07:45:57;4.10;;;3.70;;
1831;SDS011;1680;48.106;11.708;2023-04-29T07:48:24;3.97;;;3.60;;
1831;SDS011;1680;48.106;11.708;2023-04-29T07:50:51;4.20;;;3.90;;
1831;SDS011;1680;48.106;11.708;2023-04-29T07:53:18;3.80;;;3.50;;
1831;SDS011;1680;48.106;11.708;2023-04-29T07:55:45;4.30;;;3.90;;
1831;SDS011;1680;48.106;11.708;2023-04-29T07:58:14;4.70;;;4.30;;
1831;SDS011;1680;48.106;11.708;2023-04-29T08:00:41;4.07;;;3.67;;
1831;SDS011;1680;48.106;11.708;2023-04-29T08:03:09;4.63;;;4.23;;
1831;SDS011;1680;48.106;11.708;2023-04-29T08:05:36;5.50;;;3.90;;
1831;SDS011;1680;48.106;11.708;2023-04-29T08:08:03;4.23;;;3.83;;
1831;SDS011;1680;48.106;11.708;2023-04-29T08:10:30;3.93;;;3.63;;
1831;SDS011;1680;48.106;11.708;2023-04-29T08:12:58;5.00;;;4.50;;
1831;SDS011;1680;48.106;11.708;2023-04-29T08:15:26;5.10;;;4.00;;
1831;SDS011;1680;48.106;11.708;2023-04-29T08:17:53;4.60;;;4.10;;
1831;SDS011;1680;48.106;11.708;2023-04-29T08:20:20;7.40;;;3.70;;
1831;SDS011;1680;48.106;11.708;2023-04-29T08:22:48;5.73;;;3.53;;
1831;SDS011;1680;48.106;11.708;2023-04-29T08:25:15;3.77;;;3.47;;
1831;SDS011;1680;48.106;11.708;2023-04-29T08:27:43;4.53;;;3.77;;
1831;SDS011;1680;48.106;11.708;2023-04-29T08:30:10;3.67;;;3.37;;
1831;SDS011;1680;48.106;11.708;2023-04-29T08:32:39;3.70;;;3.37;;
1831;SDS011;1680;48.106;11.708;2023-04-29T08:35:06;3.57;;;3.27;;
1831;SDS011;1680;48.106;11.708;2023-04-29T08:37:34;4.17;;;3.87;;
1831;SDS011;1680;48.106;11.708;2023-04-29T08:40:02;4.30;;;3.40;;
1831;SDS011;1680;48.106;11.708;2023-04-29T08:42:31;4.10;;;3.80;;
1831;SDS011;1680;48.106;11.708;2023-04-29T08:45:00;3.23;;;2.93;;
1831;SDS011;1680;48.106;11.708;2023-04-29T08:47:29;5.00;;;4.40;;
1831;SDS011;1680;48.106;11.708;2023-04-29T08:49:58;3.53;;;3.23;;
1831;SDS011;1680;48.106;11.708;2023-04-29T08:52:28;3.80;;;2.80;;
1831;SDS011;1680;48.106;11.708;2023-04-29T08:54:56;4.40;;;3.00;;
1831;SDS011;1680;48.106;11.708;2023-04-29T08:57:24;3.10;;;2.90;;
1831;SDS011;1680;48.106;11.708;2023-04-29T08:59:52;2.70;;;2.50;;
1831;SDS011;1680;48.106;11.708;2023-04-29T09:02:19;3.30;;;3.00;;
1831;SDS011;1680;48.106;11.708;2023-04-29T09:04:50;3.00;;;2.80;;
1831;SDS011;1680;48.106;11.708;2023-04-29T09:07:25;3.33;;;2.63;;
1831;SDS011;1680;48.106;11.708;2023-04-29T09:09:53;2.77;;;2.57;;
1831;SDS011;1680;48.106;11.708;2023-04-29T09:12:21;5.70;;;2.60;;
1831;SDS011;1680;48.106;11.708;2023-04-29T09:14:48;3.13;;;2.60;;
1831;SDS011;1680;48.106;11.708;2023-04-29T09:17:15;2.43;;;2.23;;
1831;SDS011;1680;48.106;11.708;2023-04-29T09:19:44;5.17;;;2.40;;
1831;SDS011;1680;48.106;11.708;2023-04-29T09:22:12;3.50;;;2.77;;
1831;SDS011;1680;48.106;11.708;2023-04-29T09:24:40;2.73;;;2.50;;
1831;SDS011;1680;48.106;11.708;2023-04-29T09:27:08;2.33;;;2.13;;
1831;SDS011;1680;48.106;11.708;2023-04-29T09:29:35;2.33;;;2.13;;
1831;SDS011;1680;48.106;11.708;2023-04-29T09:32:17;6.43;;;2.10;;
1831;SDS011;1680;48.106;11.708;2023-04-29T09:34:45;2.63;;;2.43;;
1831;SDS011;1680;48.106;11.708;2023-04-29T09:37:22;2.47;;;2.27;;
1831;SDS011;1680;48.106;11.708;2023-04-29T09:39:51;2.50;;;2.30;;
1831;SDS011;1680;48.106;11.708;2023-04-29T09:42:19;2.80;;;2.60;;
1831;SDS011;1680;48.106;11.708;2023-04-29T09:44:46;2.63;;;2.43;;
1831;SDS011;1680;48.106;11.708;2023-04-29T09:47:13;2.70;;;2.43;;
1831;SDS011;1680;48.106;11.708;2023-04-29T09:49:41;3.27;;;2.07;;
1831;SDS011;1680;48.106;11.708;2023-04-29T09:52:10;2.27;;;2.07;;
1831;SDS011;1680;48.106;11.708;2023-04-29T09:54:39;4.03;;;2.20;;
1831;SDS011;1680;48.106;11.708;2023-04-29T09:57:09;3.47;;;2.37;;
1831;SDS011;1680;48.106;11.708;2023-04-29T09:59:37;2.63;;;1.93;;
1831;SDS011;1680;48.106;11.708;2023-04-29T10:02:06;3.40;;;2.20;;
1831;SDS011;1680;48.106;11.708;2023-04-29T10:04:36;12.30;;;3.10;;
1831;SDS011;1680;48.106;11.708;2023-04-29T10:07:07;2.80;;;2.60;;
1831;SDS011;1680;48.106;11.708;2023-04-29T10:09:35;2.53;;;2.33;;
1831;SDS011;1680;48.106;11.708;2023-04-29T10:12:05;1.97;;;1.87;;
1831;SDS011;1680;48.106;11.708;2023-04-29T10:14:40;2.10;;;2.00;;
1831;SDS011;1680;48.106;11.708;2023-04-29T10:17:13;2.10;;;2.00;;
1831;SDS011;1680;48.106;11.708;2023-04-29T10:19:46;2.20;;;2.00;;
1831;SDS011;1680;48.106;11.708;2023-04-29T10:22:32;2.60;;;2.30;;
1831;SDS011;1680;48.106;11.708;2023-04-29T10:25:06;2.43;;;2.20;;
1831;SDS011;1680;48.106;11.708;2023-04-29T10:27:36;2.70;;;1.80;;
1831;SDS011;1680;48.106;11.708;2023-04-29T10:30:07;2.07;;;1.97;;
1831;SDS011;1680;48.106;11.708;2023-04-29T10:32:37;3.17;;;2.87;;
1831;SDS011;1680;48.106;11.708;2023-04-29T10:35:07;5.53;;;3.00;;
1831;SDS011;1680;48.106;11.708;2023-04-29T10:37:35;3.70;;;3.10;;
1831;SDS011;1680;48.106;11.708;2023-04-29T10:40:06;3.47;;;3.17;;
1831;SDS011;1680;48.106;11.708;2023-04-29T10:42:42;3.70;;;2.87;;
1831;SDS011;1680;48.106;11.708;2023-04-29T10:45:18;4.57;;;3.57;;
1831;SDS011;1680;48.106;11.708;2023-04-29T10:53:27;4.63;;;3.20;;
1831;SDS011;1680;48.106;11.708;2023-04-29T10:55:56;3.13;;;2.83;;
1831;SDS011;1680;48.106;11.708;2023-04-29T10:58:35;5.23;;;2.77;;
1831;SDS011;1680;48.106;11.708;2023-04-29T11:01:13;3.40;;;3.20;;
1831;SDS011;1680;48.106;11.708;2023-04-29T11:03:48;3.87;;;3.57;;
1831;SDS011;1680;48.106;11.708;2023-04-29T11:06:19;6.00;;;3.43;;
1831;SDS011;1680;48.106;11.708;2023-04-29T11:08:58;4.90;;;3.30;;
1831;SDS011;1680;48.106;11.708;2023-04-29T11:11:31;3.10;;;2.50;;
1831;SDS011;1680;48.106;11.708;2023-04-29T11:14:07;2.73;;;2.40;;
1831;SDS011;1680;48.106;11.708;2023-04-29T11:16:36;3.73;;;2.33;;
1831;SDS011;1680;48.106;11.708;2023-04-29T11:19:04;2.90;;;2.70;;
1831;SDS011;1680;48.106;11.708;2023-04-29T11:21:34;2.93;;;2.70;;
1831;SDS011;1680;48.106;11.708;2023-04-29T11:24:02;3.53;;;2.73;;
1831;SDS011;1680;48.106;11.708;2023-04-29T11:26:30;2.80;;;2.60;;
1831;SDS011;1680;48.106;11.708;2023-04-29T11:28:58;2.77;;;2.47;;
1831;SDS011;1680;48.106;11.708;2023-04-29T11:31:26;3.40;;;2.63;;
1831;SDS011;1680;48.106;11.708;2023-04-29T11:33:57;2.60;;;2.40;;
1831;SDS011;1680;48.106;11.708;2023-04-29T11:36:25;2.37;;;2.20;;
1831;SDS011;1680;48.106;11.708;2023-04-29T11:38:52;2.27;;;2.10;;
1831;SDS011;1680;48.106;11.708;2023-04-29T11:41:20;2.87;;;2.57;;
1831;SDS011;1680;48.106;11.708;2023-04-29T11:43:53;2.40;;;2.20;;
1831;SDS011;1680;48.106;11.708;2023-04-29T11:46:22;2.80;;;2.60;;
1831;SDS011;1680;48.106;11.708;2023-04-29T11:48:49;2.13;;;1.90;;
1831;SDS011;1680;48.106;11.708;2023-04-29T11:51:18;2.40;;;2.20;;
1831;SDS011;1680;48.106;11.708;2023-04-29T11:53:46;2.70;;;2.50;;
1831;SDS011;1680;48.106;11.708;2023-04-29T11:56:13;2.83;;;2.50;;
1831;SDS011;1680;48.106;11.708;2023-04-29T11:58:41;2.33;;;2.13;;
1831;SDS011;1680;48.106;11.708;2023-04-29T12:01:08;2.50;;;2.20;;
1831;SDS011;1680;48.106;11.708;2023-04-29T12:03:36;2.40;;;2.20;;
1831;SDS011;1680;48.106;11.708;2023-04-29T12:06:03;1.90;;;1.80;;
1831;SDS011;1680;48.106;11.708;2023-04-29T12:08:32;2.43;;;2.10;;
1831;SDS011;1680;48.106;11.708;2023-04-29T12:10:59;3.53;;;2.23;;
1831;SDS011;1680;48.106;11.708;2023-04-29T12:13:27;2.20;;;2.10;;
1831;SDS011;1680;48.106;11.708;2023-04-29T12:15:56;2.47;;;2.00;;
1831;SDS011;1680;48.106;11.708;2023-04-29T12:18:24;1.67;;;1.57;;
1831;SDS011;1680;48.106;11.708;2023-04-29T12:20:52;2.13;;;1.73;;
1831;SDS011;1680;48.106;11.708;2023-04-29T12:23:21;2.10;;;1.80;;
1831;SDS011;1680;48.106;11.708;2023-04-29T12:25:52;1.73;;;1.63;;
1831;SDS011;1680;48.106;11.708;2023-04-29T12:28:21;1.90;;;1.80;;
1831;SDS011;1680;48.106;11.708;2023-04-29T12:30:49;2.00;;;1.87;;
1831;SDS011;1680;48.106;11.708;2023-04-29T12:33:18;2.10;;;1.90;;
1831;SDS011;1680;48.106;11.708;2023-04-29T12:35:47;2.50;;;1.77;;
1831;SDS011;1680;48.106;11.708;2023-04-29T12:38:18;1.90;;;1.80;;
1831;SDS011;1680;48.106;11.708;2023-04-29T12:40:46;1.83;;;1.73;;
1831;SDS011;1680;48.106;11.708;2023-04-29T12:43:18;2.37;;;1.93;;
1831;SDS011;1680;48.106;11.708;2023-04-29T12:45:45;2.10;;;1.90;;
1831;SDS011;1680;48.106;11.708;2023-04-29T12:48:12;2.00;;;1.90;;
1831;SDS011;1680;48.106;11.708;2023-04-29T12:50:39;2.00;;;1.80;;
1831;SDS011;1680;48.106;11.708;2023-04-29T12:53:07;2.60;;;2.30;;
1831;SDS011;1680;48.106;11.708;2023-04-29T12:55:36;2.60;;;2.37;;
1831;SDS011;1680;48.106;11.708;2023-04-29T12:58:04;2.23;;;2.03;;
1831;SDS011;1680;48.106;11.708;2023-04-29T13:00:34;2.70;;;2.00;;
1831;SDS011;1680;48.106;11.708;2023-04-29T13:03:02;3.10;;;1.80;;
1831;SDS011;1680;48.106;11.708;2023-04-29T13:05:29;2.60;;;1.90;;
1831;SDS011;1680;48.106;11.708;2023-04-29T13:07:56;1.70;;;1.60;;
1831;SDS011;1680;48.106;11.708;2023-04-29T13:10:24;2.17;;;2.07;;
1831;SDS011;1680;48.106;11.708;2023-04-29T13:12:54;2.13;;;1.93;;
1831;SDS011;1680;48.106;11.708;2023-04-29T13:15:21;4.37;;;2.00;;
1831;SDS011;1680;48.106;11.708;2023-04-29T13:17:49;2.00;;;1.90;;
1831;SDS011;1680;48.106;11.708;2023-04-29T13:20:17;1.77;;;1.67;;
1831;SDS011;1680;48.106;11.708;2023-04-29T13:22:44;2.30;;;1.90;;
1831;SDS011;1680;48.106;11.708;2023-04-29T13:25:12;1.80;;;1.70;;
1831;SDS011;1680;48.106;11.708;2023-04-29T13:27:40;2.10;;;1.67;;
1831;SDS011;1680;48.106;11.708;2023-04-29T13:30:08;2.37;;;2.17;;
1831;SDS011;1680;48.106;11.708;2023-04-29T13:32:36;2.90;;;1.73;;
1831;SDS011;1680;48.106;11.708;2023-04-29T13:35:06;2.40;;;2.07;;
1831;SDS011;1680;48.106;11.708;2023-04-29T13:37:33;1.80;;;1.70;;
1831;SDS011;1680;48.106;11.708;2023-04-29T13:40:01;1.70;;;1.60;;
1831;SDS011;1680;48.106;11.708;2023-04-29T13:42:29;1.80;;;1.70;;
1831;SDS011;1680;48.106;11.708;2023-04-29T13:44:56;1.87;;;1.77;;
1831;SDS011;1680;48.106;11.708;2023-04-29T13:47:23;2.10;;;1.90;;
1831;SDS011;1680;48.106;11.708;2023-04-29T13:49:50;2.43;;;1.80;;
1831;SDS011;1680;48.106;11.708;2023-04-29T13:52:19;1.80;;;1.70;;
1831;SDS011;1680;48.106;11.708;2023-04-29T13:54:46;2.00;;;1.80;;
1831;SDS011;1680;48.106;11.708;2023-04-29T13:57:13;1.97;;;1.60;;
1831;SDS011;1680;48.106;11.708;2023-04-29T13:59:40;1.60;;;1.50;;
1831;SDS011;1680;48.106;11.708;2023-04-29T14:02:07;2.10;;;1.50;;
1831;SDS011;1680;48.106;11.708;2023-04-29T14:04:37;4.50;;;2.50;;
1831;SDS011;1680;48.106;11.708;2023-04-29T14:07:05;2.07;;;1.80;;
1831;SDS011;1680;48.106;11.708;2023-04-29T14:09:33;2.03;;;1.83;;
1831;SDS011;1680;48.106;11.708;2023-04-29T14:12:01;3.00;;;1.20;;
1831;SDS011;1680;48.106;11.708;2023-04-29T14:14:28;1.83;;;1.50;;
1831;SDS011;1680;48.106;11.708;2023-04-29T14:16:58;1.60;;;1.50;;
1831;SDS011;1680;48.106;11.708;2023-04-29T14:19:25;1.50;;;1.40;;
1831;SDS011;1680;48.106;11.708;2023-04-29T14:21:53;1.80;;;1.70;;
1831;SDS011;1680;48.106;11.708;2023-04-29T14:24:20;1.70;;;1.60;;
1831;SDS011;1680;48.106;11.708;2023-04-29T14:26:48;1.87;;;1.60;;
1831;SDS011;1680;48.106;11.708;2023-04-29T14:29:17;1.73;;;1.63;;
1831;SDS011;1680;48.106;11.708;2023-04-29T14:31:44;1.70;;;1.50;;
1831;SDS011;1680;48.106;11.708;2023-04-29T14:34:11;1.70;;;1.60;;
1831;SDS011;1680;48.106;11.708;2023-04-29T14:36:38;1.70;;;1.60;;
1831;SDS011;1680;48.106;11.708;2023-04-29T14:39:06;1.43;;;1.33;;
1831;SDS011;1680;48.106;11.708;2023-04-29T14:41:33;1.80;;;1.70;;
1831;SDS011;1680;48.106;11.708;2023-04-29T14:44:01;1.90;;;1.80;;
1831;SDS011;1680;48.106;11.708;2023-04-29T14:46:30;2.73;;;2.20;;
1831;SDS011;1680;48.106;11.708;2023-04-29T14:48:57;1.67;;;1.57;;
1831;SDS011;1680;48.106;11.708;2023-04-29T14:51:24;1.60;;;1.50;;
1831;SDS011;1680;48.106;11.708;2023-04-29T14:53:52;1.83;;;1.70;;
1831;SDS011;1680;48.106;11.708;2023-04-29T14:56:19;2.07;;;1.60;;
1831;SDS011;1680;48.106;11.708;2023-04-29T14:58:46;1.57;;;1.47;;
1831;SDS011;1680;48.106;11.708;2023-04-29T15:01:15;1.80;;;1.70;;
1831;SDS011;1680;48.106;11.708;2023-04-29T15:03:42;2.80;;;1.90;;
1831;SDS011;1680;48.106;11.708;2023-04-29T15:06:09;2.60;;;1.80;;
1831;SDS011;1680;48.106;11.708;2023-04-29T15:08:36;2.63;;;1.60;;
1831;SDS011;1680;48.106;11.708;2023-04-29T15:11:04;1.60;;;1.50;;
1831;SDS011;1680;48.106;11.708;2023-04-29T15:13:31;3.17;;;1.73;;